sensor_id;sensor_type;location;lat;lon;timestamp;temperature;humidity
75451;DHT22;64029;48.244;9.188;2023-05-02T00:01:55;9.10;81.20
75451;DHT22;64029;48.244;9.188;2023-05-02T00:04:22;9.00;81.10
75451;DHT22;64029;48.244;9.188;2023-05-02T00:06:50;9.00;81.00
75451;DHT22;64029;48.244;9.188;2023-05-02T00:09:18;9.00;81.00
75451;DHT22;64029;48.244;9.188;2023-05-02T00:11:46;9.00;80.90
75451;DHT22;64029;48.244;9.188;2023-05-02T00:14:12;9.00;80.70
75451;DHT22;64029;48.244;9.188;2023-05-02T00:16:39;8.90;80.50
75451;DHT22;64029;48.244;9.188;2023-05-02T00:19:06;8.90;80.40
75451;DHT22;64029;48.244;9.188;2023-05-02T00:21:33;8.90;80.20
75451;DHT22;64029;48.244;9.188;2023-05-02T00:24:00;8.80;80.10
75451;DHT22;64029;48.244;9.188;2023-05-02T00:26:28;8.80;80.70
75451;DHT22;64029;48.244;9.188;2023-05-02T00:28:56;8.80;80.70
75451;DHT22;64029;48.244;9.188;2023-05-02T00:31:23;8.70;80.10
75451;DHT22;64029;48.244;9.188;2023-05-02T00:33:50;8.70;80.10
75451;DHT22;64029;48.244;9.188;2023-05-02T00:36:18;8.70;80.00
75451;DHT22;64029;48.244;9.188;2023-05-02T00:38:45;8.70;79.90
75451;DHT22;64029;48.244;9.188;2023-05-02T00:41:11;8.60;79.80
75451;DHT22;64029;48.244;9.188;2023-05-02T00:43:40;8.60;79.80
75451;DHT22;64029;48.244;9.188;2023-05-02T00:46:06;8.60;79.70
75451;DHT22;64029;48.244;9.188;2023-05-02T00:48:34;8.60;79.80
75451;DHT22;64029;48.244;9.188;2023-05-02T00:51:02;8.50;79.70
75451;DHT22;64029;48.244;9.188;2023-05-02T00:53:30;8.50;79.70
75451;DHT22;64029;48.244;9.188;2023-05-02T00:55:57;8.50;79.90
75451;DHT22;64029;48.244;9.188;2023-05-02T00:58:24;8.40;79.90
75451;DHT22;64029;48.244;9.188;2023-05-02T01:01:03;8.40;79.90
75451;DHT22;64029;48.244;9.188;2023-05-02T01:03:40;8.40;80.00
75451;DHT22;64029;48.244;9.188;2023-05-02T01:06:14;8.30;80.10
75451;DHT22;64029;48.244;9.188;2023-05-02T01:08:49;8.30;80.10
75451;DHT22;64029;48.244;9.188;2023-05-02T01:11:27;8.30;80.20
75451;DHT22;64029;48.244;9.188;2023-05-02T01:13:58;8.30;80.20
75451;DHT22;64029;48.244;9.188;2023-05-02T01:16:27;8.20;80.00
75451;DHT22;64029;48.244;9.188;2023-05-02T01:18:55;8.20;79.90
75451;DHT22;64029;48.244;9.188;2023-05-02T01:21:24;8.20;79.70
75451;DHT22;64029;48.244;9.188;2023-05-02T01:23:58;8.20;79.70
75451;DHT22;64029;48.244;9.188;2023-05-02T01:26:33;8.20;79.80
75451;DHT22;64029;48.244;9.188;2023-05-02T01:29:04;8.10;79.70
75451;DHT22;64029;48.244;9.188;2023-05-02T01:31:35;8.10;79.90
75451;DHT22;64029;48.244;9.188;2023-05-02T01:34:04;8.10;79.80
75451;DHT22;64029;48.244;9.188;2023-05-02T01:36:33;8.10;79.80
75451;DHT22;64029;48.244;9.188;2023-05-02T01:39:01;8.10;79.90
75451;DHT22;64029;48.244;9.188;2023-05-02T01:41:30;8.10;79.90
75451;DHT22;64029;48.244;9.188;2023-05-02T01:43:58;8.10;79.90
75451;DHT22;64029;48.244;9.188;2023-05-02T01:46:31;8.10;79.90
75451;DHT22;64029;48.244;9.188;2023-05-02T01:49:02;8.00;79.80
75451;DHT22;64029;48.244;9.188;2023-05-02T01:51:31;8.00;79.80
75451;DHT22;64029;48.244;9.188;2023-05-02T01:54:00;8.00;79.80
75451;DHT22;64029;48.244;9.188;2023-05-02T01:56:30;8.00;79.80
75451;DHT22;64029;48.244;9.188;2023-05-02T01:58:58;8.00;79.60
75451;DHT22;64029;48.244;9.188;2023-05-02T02:01:27;7.90;79.60
75451;DHT22;64029;48.244;9.188;2023-05-02T02:03:57;7.90;79.80
75451;DHT22;64029;48.244;9.188;2023-05-02T02:06:26;7.80;79.70
75451;DHT22;64029;48.244;9.188;2023-05-02T02:08:53;7.80;79.60
75451;DHT22;64029;48.244;9.188;2023-05-02T02:11:25;7.80;79.60
75451;DHT22;64029;48.244;9.188;2023-05-02T02:13:59;7.80;79.60
75451;DHT22;64029;48.244;9.188;2023-05-02T02:16:30;7.70;79.50
75451;DHT22;64029;48.244;9.188;2023-05-02T02:19:03;7.70;79.40
75451;DHT22;64029;48.244;9.188;2023-05-02T02:21:33;7.70;79.30
75451;DHT22;64029;48.244;9.188;2023-05-02T02:24:02;7.60;79.20
75451;DHT22;64029;48.244;9.188;2023-05-02T02:26:29;7.60;79.10
75451;DHT22;64029;48.244;9.188;2023-05-02T02:28:56;7.60;79.00
75451;DHT22;64029;48.244;9.188;2023-05-02T02:31:23;7.60;79.00
75451;DHT22;64029;48.244;9.188;2023-05-02T02:33:50;7.50;78.90
75451;DHT22;64029;48.244;9.188;2023-05-02T02:36:23;7.50;79.00
75451;DHT22;64029;48.244;9.188;2023-05-02T02:38:57;7.50;79.10
75451;DHT22;64029;48.244;9.188;2023-05-02T02:41:34;7.40;79.10
75451;DHT22;64029;48.244;9.188;2023-05-02T02:44:07;7.30;79.10
75451;DHT22;64029;48.244;9.188;2023-05-02T02:46:45;7.30;79.30
75451;DHT22;64029;48.244;9.188;2023-05-02T02:49:25;7.30;79.30
75451;DHT22;64029;48.244;9.188;2023-05-02T02:51:59;7.30;79.30
75451;DHT22;64029;48.244;9.188;2023-05-02T02:54:32;7.20;79.20
75451;DHT22;64029;48.244;9.188;2023-05-02T02:57:04;7.20;79.30
75451;DHT22;64029;48.244;9.188;2023-05-02T02:59:34;7.20;79.50
75451;DHT22;64029;48.244;9.188;2023-05-02T03:02:04;7.20;79.40
75451;DHT22;64029;48.244;9.188;2023-05-02T03:04:34;7.10;80.00
75451;DHT22;64029;48.244;9.188;2023-05-02T03:07:03;7.20;79.50
75451;DHT22;64029;48.244;9.188;2023-05-02T03:09:40;7.10;79.40
75451;DHT22;64029;48.244;9.188;2023-05-02T03:12:06;7.10;79.50
75451;DHT22;64029;48.244;9.188;2023-05-02T03:14:34;7.10;79.70
75451;DHT22;64029;48.244;9.188;2023-05-02T03:17:01;7.00;79.50
75451;DHT22;64029;48.244;9.188;2023-05-02T03:19:28;7.00;79.60
75451;DHT22;64029;48.244;9.188;2023-05-02T03:21:55;7.00;79.80
75451;DHT22;64029;48.244;9.188;2023-05-02T03:24:23;6.90;79.80
75451;DHT22;64029;48.244;9.188;2023-05-02T03:26:53;6.90;79.80
75451;DHT22;64029;48.244;9.188;2023-05-02T03:29:20;6.90;80.10
75451;DHT22;64029;48.244;9.188;2023-05-02T03:31:47;6.90;80.10
75451;DHT22;64029;48.244;9.188;2023-05-02T03:34:14;6.80;80.00
75451;DHT22;64029;48.244;9.188;2023-05-02T03:36:41;6.80;79.80
75451;DHT22;64029;48.244;9.188;2023-05-02T03:39:08;6.80;79.80
75451;DHT22;64029;48.244;9.188;2023-05-02T03:41:36;6.80;79.80
75451;DHT22;64029;48.244;9.188;2023-05-02T03:44:03;6.70;79.60
75451;DHT22;64029;48.244;9.188;2023-05-02T03:46:30;6.70;79.60
75451;DHT22;64029;48.244;9.188;2023-05-02T03:48:57;6.70;79.50
75451;DHT22;64029;48.244;9.188;2023-05-02T03:51:24;6.70;79.50
75451;DHT22;64029;48.244;9.188;2023-05-02T03:53:51;6.70;79.50
75451;DHT22;64029;48.244;9.188;2023-05-02T03:56:18;6.60;79.60
75451;DHT22;64029;48.244;9.188;2023-05-02T03:58:47;6.60;79.80
75451;DHT22;64029;48.244;9.188;2023-05-02T04:01:14;6.60;80.00
75451;DHT22;64029;48.244;9.188;2023-05-02T04:03:41;6.60;80.10
75451;DHT22;64029;48.244;9.188;2023-05-02T04:06:08;6.60;80.20
75451;DHT22;64029;48.244;9.188;2023-05-02T04:08:35;6.50;80.10
75451;DHT22;64029;48.244;9.188;2023-05-02T04:11:03;6.50;80.10
75451;DHT22;64029;48.244;9.188;2023-05-02T04:13:29;6.50;80.90
75451;DHT22;64029;48.244;9.188;2023-05-02T04:15:58;6.50;80.40
75451;DHT22;64029;48.244;9.188;2023-05-02T04:18:25;6.40;80.20
75451;DHT22;64029;48.244;9.188;2023-05-02T04:20:51;6.40;80.20
75451;DHT22;64029;48.244;9.188;2023-05-02T04:23:18;6.40;81.10
75451;DHT22;64029;48.244;9.188;2023-05-02T04:25:50;6.40;80.30
75451;DHT22;64029;48.244;9.188;2023-05-02T04:28:19;6.40;80.20
75451;DHT22;64029;48.244;9.188;2023-05-02T04:30:46;6.40;80.00
75451;DHT22;64029;48.244;9.188;2023-05-02T04:33:14;6.30;79.90
75451;DHT22;64029;48.244;9.188;2023-05-02T04:35:41;6.30;79.90
75451;DHT22;64029;48.244;9.188;2023-05-02T04:38:08;6.30;79.70
75451;DHT22;64029;48.244;9.188;2023-05-02T04:40:35;6.30;79.70
75451;DHT22;64029;48.244;9.188;2023-05-02T04:43:02;6.30;79.70
75451;DHT22;64029;48.244;9.188;2023-05-02T04:45:29;6.30;79.80
75451;DHT22;64029;48.244;9.188;2023-05-02T04:47:56;6.30;79.50
75451;DHT22;64029;48.244;9.188;2023-05-02T04:50:25;6.30;79.50
75451;DHT22;64029;48.244;9.188;2023-05-02T04:52:52;6.30;79.60
75451;DHT22;64029;48.244;9.188;2023-05-02T04:55:19;6.30;79.50
75451;DHT22;64029;48.244;9.188;2023-05-02T04:57:46;6.30;79.50
75451;DHT22;64029;48.244;9.188;2023-05-02T05:00:13;6.30;79.30
75451;DHT22;64029;48.244;9.188;2023-05-02T05:02:40;6.30;80.10
75451;DHT22;64029;48.244;9.188;2023-05-02T05:05:07;6.30;79.30
75451;DHT22;64029;48.244;9.188;2023-05-02T05:07:35;6.30;79.20
75451;DHT22;64029;48.244;9.188;2023-05-02T05:10:02;6.30;79.30
75451;DHT22;64029;48.244;9.188;2023-05-02T05:12:29;6.20;79.30
75451;DHT22;64029;48.244;9.188;2023-05-02T05:14:56;6.30;79.10
75451;DHT22;64029;48.244;9.188;2023-05-02T05:17:23;6.30;78.90
75451;DHT22;64029;48.244;9.188;2023-05-02T05:19:50;6.30;78.90
75451;DHT22;64029;48.244;9.188;2023-05-02T05:22:17;6.30;78.70
75451;DHT22;64029;48.244;9.188;2023-05-02T05:24:51;6.30;78.80
75451;DHT22;64029;48.244;9.188;2023-05-02T05:27:19;6.40;78.90
75451;DHT22;64029;48.244;9.188;2023-05-02T05:29:46;6.30;78.60
75451;DHT22;64029;48.244;9.188;2023-05-02T05:32:13;6.40;78.80
75451;DHT22;64029;48.244;9.188;2023-05-02T05:34:40;6.40;79.10
75451;DHT22;64029;48.244;9.188;2023-05-02T05:37:07;6.40;78.80
75451;DHT22;64029;48.244;9.188;2023-05-02T05:39:33;6.40;78.80
75451;DHT22;64029;48.244;9.188;2023-05-02T05:42:02;6.40;78.80
75451;DHT22;64029;48.244;9.188;2023-05-02T05:44:28;6.40;79.10
75451;DHT22;64029;48.244;9.188;2023-05-02T05:46:56;6.40;79.40
75451;DHT22;64029;48.244;9.188;2023-05-02T05:49:22;6.50;79.40
75451;DHT22;64029;48.244;9.188;2023-05-02T05:51:49;6.50;79.30
75451;DHT22;64029;48.244;9.188;2023-05-02T05:54:16;6.50;79.40
75451;DHT22;64029;48.244;9.188;2023-05-02T05:56:46;6.50;80.10
75451;DHT22;64029;48.244;9.188;2023-05-02T05:59:14;6.60;79.60
75451;DHT22;64029;48.244;9.188;2023-05-02T06:01:41;6.60;81.60
75451;DHT22;64029;48.244;9.188;2023-05-02T06:04:08;6.60;80.90
75451;DHT22;64029;48.244;9.188;2023-05-02T06:06:35;6.60;80.60
75451;DHT22;64029;48.244;9.188;2023-05-02T06:09:02;6.70;82.50
75451;DHT22;64029;48.244;9.188;2023-05-02T06:11:30;6.70;82.50
75451;DHT22;64029;48.244;9.188;2023-05-02T06:13:57;6.70;82.80
75451;DHT22;64029;48.244;9.188;2023-05-02T06:16:25;6.80;81.30
75451;DHT22;64029;48.244;9.188;2023-05-02T06:18:52;6.80;81.40
75451;DHT22;64029;48.244;9.188;2023-05-02T06:21:19;6.80;81.50
75451;DHT22;64029;48.244;9.188;2023-05-02T06:23:46;6.80;81.90
75451;DHT22;64029;48.244;9.188;2023-05-02T06:26:13;6.90;82.30
75451;DHT22;64029;48.244;9.188;2023-05-02T06:28:39;6.90;82.30
75451;DHT22;64029;48.244;9.188;2023-05-02T06:31:06;6.90;82.10
75451;DHT22;64029;48.244;9.188;2023-05-02T06:33:35;6.90;81.60
75451;DHT22;64029;48.244;9.188;2023-05-02T06:36:02;7.00;81.70
75451;DHT22;64029;48.244;9.188;2023-05-02T06:38:29;7.00;81.80
75451;DHT22;64029;48.244;9.188;2023-05-02T06:40:56;7.00;82.60
75451;DHT22;64029;48.244;9.188;2023-05-02T06:43:23;7.10;82.20
75451;DHT22;64029;48.244;9.188;2023-05-02T06:45:52;7.10;82.00
75451;DHT22;64029;48.244;9.188;2023-05-02T06:48:20;7.20;82.10
75451;DHT22;64029;48.244;9.188;2023-05-02T06:50:48;7.20;81.90
75451;DHT22;64029;48.244;9.188;2023-05-02T06:53:16;7.20;82.10
75451;DHT22;64029;48.244;9.188;2023-05-02T06:55:44;7.20;82.30
75451;DHT22;64029;48.244;9.188;2023-05-02T06:58:11;7.30;82.70
75451;DHT22;64029;48.244;9.188;2023-05-02T07:00:38;7.30;83.20
75451;DHT22;64029;48.244;9.188;2023-05-02T07:03:05;7.30;83.40
75451;DHT22;64029;48.244;9.188;2023-05-02T07:05:32;7.40;82.90
75451;DHT22;64029;48.244;9.188;2023-05-02T07:08:00;7.40;82.40
75451;DHT22;64029;48.244;9.188;2023-05-02T07:10:27;7.50;82.10
75451;DHT22;64029;48.244;9.188;2023-05-02T07:12:53;7.50;82.40
75451;DHT22;64029;48.244;9.188;2023-05-02T07:15:20;7.50;82.10
75451;DHT22;64029;48.244;9.188;2023-05-02T07:17:47;7.50;81.70
75451;DHT22;64029;48.244;9.188;2023-05-02T07:20:14;7.60;82.00
75451;DHT22;64029;48.244;9.188;2023-05-02T07:22:41;7.60;83.10
75451;DHT22;64029;48.244;9.188;2023-05-02T07:25:10;7.70;85.10
75451;DHT22;64029;48.244;9.188;2023-05-02T07:27:37;7.80;86.50
75451;DHT22;64029;48.244;9.188;2023-05-02T07:30:04;7.90;87.90
75451;DHT22;64029;48.244;9.188;2023-05-02T07:32:32;7.90;87.40
75451;DHT22;64029;48.244;9.188;2023-05-02T07:34:58;8.00;86.90
75451;DHT22;64029;48.244;9.188;2023-05-02T07:37:26;8.20;88.20
75451;DHT22;64029;48.244;9.188;2023-05-02T07:39:57;8.30;89.40
75451;DHT22;64029;48.244;9.188;2023-05-02T07:42:29;8.40;89.50
75451;DHT22;64029;48.244;9.188;2023-05-02T07:44:56;8.40;88.00
75451;DHT22;64029;48.244;9.188;2023-05-02T07:47:23;8.50;87.90
75451;DHT22;64029;48.244;9.188;2023-05-02T07:49:51;8.60;88.80
75451;DHT22;64029;48.244;9.188;2023-05-02T07:52:18;8.60;88.40
75451;DHT22;64029;48.244;9.188;2023-05-02T07:54:47;8.70;87.80
75451;DHT22;64029;48.244;9.188;2023-05-02T07:57:14;8.70;87.80
75451;DHT22;64029;48.244;9.188;2023-05-02T07:59:42;8.80;88.00
75451;DHT22;64029;48.244;9.188;2023-05-02T08:02:09;8.80;87.00
75451;DHT22;64029;48.244;9.188;2023-05-02T08:04:38;8.80;86.70
75451;DHT22;64029;48.244;9.188;2023-05-02T08:07:05;8.80;87.10
75451;DHT22;64029;48.244;9.188;2023-05-02T08:09:32;8.80;86.10
75451;DHT22;64029;48.244;9.188;2023-05-02T08:11:58;8.80;86.00
75451;DHT22;64029;48.244;9.188;2023-05-02T08:14:28;8.80;85.90
75451;DHT22;64029;48.244;9.188;2023-05-02T08:16:56;8.80;85.60
75451;DHT22;64029;48.244;9.188;2023-05-02T08:19:23;8.90;85.50
75451;DHT22;64029;48.244;9.188;2023-05-02T08:21:49;8.90;85.60
75451;DHT22;64029;48.244;9.188;2023-05-02T08:24:16;8.90;85.20
75451;DHT22;64029;48.244;9.188;2023-05-02T08:26:43;8.90;85.60
75451;DHT22;64029;48.244;9.188;2023-05-02T08:29:10;9.00;85.10
75451;DHT22;64029;48.244;9.188;2023-05-02T08:31:37;9.00;85.10
75451;DHT22;64029;48.244;9.188;2023-05-02T08:34:06;9.00;84.90
75451;DHT22;64029;48.244;9.188;2023-05-02T08:36:33;9.00;84.70
75451;DHT22;64029;48.244;9.188;2023-05-02T08:39:01;9.10;84.70
75451;DHT22;64029;48.244;9.188;2023-05-02T08:41:29;9.20;85.00
75451;DHT22;64029;48.244;9.188;2023-05-02T08:43:56;9.30;84.90
75451;DHT22;64029;48.244;9.188;2023-05-02T08:46:24;9.30;84.40
75451;DHT22;64029;48.244;9.188;2023-05-02T08:48:52;9.40;84.70
75451;DHT22;64029;48.244;9.188;2023-05-02T08:51:22;9.40;84.50
75451;DHT22;64029;48.244;9.188;2023-05-02T08:53:51;9.50;84.60
75451;DHT22;64029;48.244;9.188;2023-05-02T08:56:18;9.60;84.30
75451;DHT22;64029;48.244;9.188;2023-05-02T08:58:45;9.70;84.30
75451;DHT22;64029;48.244;9.188;2023-05-02T09:01:15;9.80;84.00
75451;DHT22;64029;48.244;9.188;2023-05-02T09:03:43;9.80;83.90
75451;DHT22;64029;48.244;9.188;2023-05-02T09:06:11;9.80;84.20
75451;DHT22;64029;48.244;9.188;2023-05-02T09:08:40;9.90;84.00
75451;DHT22;64029;48.244;9.188;2023-05-02T09:11:09;9.90;84.10
75451;DHT22;64029;48.244;9.188;2023-05-02T09:13:37;10.10;83.00
75451;DHT22;64029;48.244;9.188;2023-05-02T09:16:05;10.10;82.30
75451;DHT22;64029;48.244;9.188;2023-05-02T09:18:34;10.20;82.20
75451;DHT22;64029;48.244;9.188;2023-05-02T09:21:04;10.20;82.00
75451;DHT22;64029;48.244;9.188;2023-05-02T09:23:34;10.30;82.10
75451;DHT22;64029;48.244;9.188;2023-05-02T09:26:10;10.40;81.80
75451;DHT22;64029;48.244;9.188;2023-05-02T09:28:38;10.50;81.80
75451;DHT22;64029;48.244;9.188;2023-05-02T09:31:06;10.50;81.20
75451;DHT22;64029;48.244;9.188;2023-05-02T09:33:34;10.60;81.20
75451;DHT22;64029;48.244;9.188;2023-05-02T09:36:01;10.60;81.30
75451;DHT22;64029;48.244;9.188;2023-05-02T09:38:28;10.70;81.10
75451;DHT22;64029;48.244;9.188;2023-05-02T09:40:55;10.80;80.70
75451;DHT22;64029;48.244;9.188;2023-05-02T09:43:23;10.80;80.70
75451;DHT22;64029;48.244;9.188;2023-05-02T09:45:57;10.80;80.10
75451;DHT22;64029;48.244;9.188;2023-05-02T09:48:26;10.90;80.50
75451;DHT22;64029;48.244;9.188;2023-05-02T09:50:53;11.00;79.70
75451;DHT22;64029;48.244;9.188;2023-05-02T09:53:20;11.00;79.70
75451;DHT22;64029;48.244;9.188;2023-05-02T09:55:48;11.10;80.80
75451;DHT22;64029;48.244;9.188;2023-05-02T09:58:25;11.10;79.70
75451;DHT22;64029;48.244;9.188;2023-05-02T10:00:52;11.10;79.30
75451;DHT22;64029;48.244;9.188;2023-05-02T10:03:22;11.10;80.30
75451;DHT22;64029;48.244;9.188;2023-05-02T10:05:49;11.10;79.50
75451;DHT22;64029;48.244;9.188;2023-05-02T10:08:18;11.10;79.10
75451;DHT22;64029;48.244;9.188;2023-05-02T10:10:49;11.20;79.30
75451;DHT22;64029;48.244;9.188;2023-05-02T10:13:19;11.20;78.70
75451;DHT22;64029;48.244;9.188;2023-05-02T10:15:58;11.30;79.20
75451;DHT22;64029;48.244;9.188;2023-05-02T10:18:28;11.30;78.50
75451;DHT22;64029;48.244;9.188;2023-05-02T10:20:57;11.40;78.60
75451;DHT22;64029;48.244;9.188;2023-05-02T10:23:26;11.50;78.50
75451;DHT22;64029;48.244;9.188;2023-05-02T10:25:53;11.50;79.60
75451;DHT22;64029;48.244;9.188;2023-05-02T10:28:20;11.60;78.30
75451;DHT22;64029;48.244;9.188;2023-05-02T10:30:49;11.70;77.90
75451;DHT22;64029;48.244;9.188;2023-05-02T10:33:17;11.70;77.00
75451;DHT22;64029;48.244;9.188;2023-05-02T10:35:45;11.80;78.20
75451;DHT22;64029;48.244;9.188;2023-05-02T10:38:14;11.80;78.50
75451;DHT22;64029;48.244;9.188;2023-05-02T10:40:48;11.90;76.50
75451;DHT22;64029;48.244;9.188;2023-05-02T10:43:21;11.80;76.30
75451;DHT22;64029;48.244;9.188;2023-05-02T10:45:50;11.90;76.50
75451;DHT22;64029;48.244;9.188;2023-05-02T10:48:19;11.90;75.80
75451;DHT22;64029;48.244;9.188;2023-05-02T10:50:48;12.00;74.90
75451;DHT22;64029;48.244;9.188;2023-05-02T10:53:29;12.00;76.80
75451;DHT22;64029;48.244;9.188;2023-05-02T10:56:14;12.10;77.10
75451;DHT22;64029;48.244;9.188;2023-05-02T10:58:42;12.10;74.80
75451;DHT22;64029;48.244;9.188;2023-05-02T11:01:35;12.20;74.90
75451;DHT22;64029;48.244;9.188;2023-05-02T11:04:09;12.10;74.10
75451;DHT22;64029;48.244;9.188;2023-05-02T11:09:42;12.20;73.10
75451;DHT22;64029;48.244;9.188;2023-05-02T11:12:08;12.30;73.30
75451;DHT22;64029;48.244;9.188;2023-05-02T11:14:43;12.20;73.90
75451;DHT22;64029;48.244;9.188;2023-05-02T11:17:13;12.30;73.40
75451;DHT22;64029;48.244;9.188;2023-05-02T11:20:17;12.50;74.80
75451;DHT22;64029;48.244;9.188;2023-05-02T11:22:45;12.60;75.00
75451;DHT22;64029;48.244;9.188;2023-05-02T11:25:30;12.70;75.90
75451;DHT22;64029;48.244;9.188;2023-05-02T11:27:57;12.70;74.80
75451;DHT22;64029;48.244;9.188;2023-05-02T11:30:44;12.80;74.90
75451;DHT22;64029;48.244;9.188;2023-05-02T11:33:18;12.70;73.20
75451;DHT22;64029;48.244;9.188;2023-05-02T11:35:46;12.70;74.10
75451;DHT22;64029;48.244;9.188;2023-05-02T11:38:24;12.70;74.80
75451;DHT22;64029;48.244;9.188;2023-05-02T11:40:58;12.70;74.60
75451;DHT22;64029;48.244;9.188;2023-05-02T11:43:26;12.70;74.70
75451;DHT22;64029;48.244;9.188;2023-05-02T11:45:54;12.80;74.20
75451;DHT22;64029;48.244;9.188;2023-05-02T11:48:24;12.80;73.90
75451;DHT22;64029;48.244;9.188;2023-05-02T11:50:54;12.80;73.20
75451;DHT22;64029;48.244;9.188;2023-05-02T11:53:22;12.80;72.80
75451;DHT22;64029;48.244;9.188;2023-05-02T11:55:51;12.80;73.50
75451;DHT22;64029;48.244;9.188;2023-05-02T11:58:19;12.80;73.50
75451;DHT22;64029;48.244;9.188;2023-05-02T12:00:47;12.90;73.00
75451;DHT22;64029;48.244;9.188;2023-05-02T12:03:23;12.80;72.80
75451;DHT22;64029;48.244;9.188;2023-05-02T12:05:50;12.80;71.80
75451;DHT22;64029;48.244;9.188;2023-05-02T12:08:22;12.80;73.10
75451;DHT22;64029;48.244;9.188;2023-05-02T12:10:51;12.90;72.70
75451;DHT22;64029;48.244;9.188;2023-05-02T12:13:19;12.90;72.10
75451;DHT22;64029;48.244;9.188;2023-05-02T12:15:47;12.90;72.80
75451;DHT22;64029;48.244;9.188;2023-05-02T12:18:15;12.90;71.90
75451;DHT22;64029;48.244;9.188;2023-05-02T12:20:44;12.90;72.20
75451;DHT22;64029;48.244;9.188;2023-05-02T12:23:12;12.90;72.40
75451;DHT22;64029;48.244;9.188;2023-05-02T12:25:39;13.00;72.30
75451;DHT22;64029;48.244;9.188;2023-05-02T12:28:07;13.00;72.80
75451;DHT22;64029;48.244;9.188;2023-05-02T12:30:36;13.00;73.00
75451;DHT22;64029;48.244;9.188;2023-05-02T12:33:04;13.10;73.30
75451;DHT22;64029;48.244;9.188;2023-05-02T12:35:33;13.10;72.30
75451;DHT22;64029;48.244;9.188;2023-05-02T12:38:12;13.10;71.80
75451;DHT22;64029;48.244;9.188;2023-05-02T12:40:49;13.10;71.00
75451;DHT22;64029;48.244;9.188;2023-05-02T12:43:16;13.10;72.00
75451;DHT22;64029;48.244;9.188;2023-05-02T12:45:43;13.10;70.50
75451;DHT22;64029;48.244;9.188;2023-05-02T12:48:21;13.10;72.70
75451;DHT22;64029;48.244;9.188;2023-05-02T12:50:48;13.10;72.30
75451;DHT22;64029;48.244;9.188;2023-05-02T12:53:16;13.10;72.00
75451;DHT22;64029;48.244;9.188;2023-05-02T12:55:43;13.20;71.50
75451;DHT22;64029;48.244;9.188;2023-05-02T12:58:11;13.20;71.30
75451;DHT22;64029;48.244;9.188;2023-05-02T13:00:40;13.10;70.40
75451;DHT22;64029;48.244;9.188;2023-05-02T13:03:08;13.10;69.50
75451;DHT22;64029;48.244;9.188;2023-05-02T13:05:35;13.20;70.30
75451;DHT22;64029;48.244;9.188;2023-05-02T13:08:02;13.20;70.10
75451;DHT22;64029;48.244;9.188;2023-05-02T13:10:31;13.30;70.50
75451;DHT22;64029;48.244;9.188;2023-05-02T13:12:58;13.30;69.90
75451;DHT22;64029;48.244;9.188;2023-05-02T13:15:26;13.30;70.70
75451;DHT22;64029;48.244;9.188;2023-05-02T13:17:53;13.30;69.80
75451;DHT22;64029;48.244;9.188;2023-05-02T13:20:20;13.30;69.60
75451;DHT22;64029;48.244;9.188;2023-05-02T13:22:47;13.40;69.60
75451;DHT22;64029;48.244;9.188;2023-05-02T13:25:14;13.40;69.70
75451;DHT22;64029;48.244;9.188;2023-05-02T13:27:42;13.40;69.50
75451;DHT22;64029;48.244;9.188;2023-05-02T13:30:11;13.50;70.50
75451;DHT22;64029;48.244;9.188;2023-05-02T13:32:38;13.60;71.20
75451;DHT22;64029;48.244;9.188;2023-05-02T13:35:06;13.70;71.30
75451;DHT22;64029;48.244;9.188;2023-05-02T13:37:33;13.70;70.60
75451;DHT22;64029;48.244;9.188;2023-05-02T13:40:00;13.70;69.70
75451;DHT22;64029;48.244;9.188;2023-05-02T13:42:27;13.70;70.00
75451;DHT22;64029;48.244;9.188;2023-05-02T13:44:55;13.70;70.20
75451;DHT22;64029;48.244;9.188;2023-05-02T13:47:22;13.70;69.90
75451;DHT22;64029;48.244;9.188;2023-05-02T13:49:49;13.80;69.30
75451;DHT22;64029;48.244;9.188;2023-05-02T13:52:16;13.90;70.10
75451;DHT22;64029;48.244;9.188;2023-05-02T13:54:42;13.90;68.60
75451;DHT22;64029;48.244;9.188;2023-05-02T13:57:09;13.80;68.40
75451;DHT22;64029;48.244;9.188;2023-05-02T13:59:36;13.80;67.70
75451;DHT22;64029;48.244;9.188;2023-05-02T14:02:04;13.80;68.20
75451;DHT22;64029;48.244;9.188;2023-05-02T14:04:31;13.80;68.00
75451;DHT22;64029;48.244;9.188;2023-05-02T14:06:58;13.90;68.60
75451;DHT22;64029;48.244;9.188;2023-05-02T14:09:25;13.90;68.30
75451;DHT22;64029;48.244;9.188;2023-05-02T14:11:52;14.00;69.10
75451;DHT22;64029;48.244;9.188;2023-05-02T14:14:20;14.00;66.90
75451;DHT22;64029;48.244;9.188;2023-05-02T14:16:46;14.00;67.10
75451;DHT22;64029;48.244;9.188;2023-05-02T14:19:15;13.90;66.70
75451;DHT22;64029;48.244;9.188;2023-05-02T14:21:42;13.90;66.90
75451;DHT22;64029;48.244;9.188;2023-05-02T14:24:09;13.90;67.50
75451;DHT22;64029;48.244;9.188;2023-05-02T14:26:36;13.90;67.40
75451;DHT22;64029;48.244;9.188;2023-05-02T14:29:03;13.90;66.10
75451;DHT22;64029;48.244;9.188;2023-05-02T14:31:30;13.80;67.40
75451;DHT22;64029;48.244;9.188;2023-05-02T14:33:57;13.90;67.30
75451;DHT22;64029;48.244;9.188;2023-05-02T14:36:25;13.90;66.60
75451;DHT22;64029;48.244;9.188;2023-05-02T14:38:52;13.80;67.60
75451;DHT22;64029;48.244;9.188;2023-05-02T14:41:19;13.80;67.20
75451;DHT22;64029;48.244;9.188;2023-05-02T14:43:46;13.80;68.10
75451;DHT22;64029;48.244;9.188;2023-05-02T14:46:13;13.90;65.90
75451;DHT22;64029;48.244;9.188;2023-05-02T14:48:40;13.90;66.80
75451;DHT22;64029;48.244;9.188;2023-05-02T14:51:07;13.90;64.70
75451;DHT22;64029;48.244;9.188;2023-05-02T14:53:35;13.80;66.10
75451;DHT22;64029;48.244;9.188;2023-05-02T14:56:03;13.90;66.60
75451;DHT22;64029;48.244;9.188;2023-05-02T14:58:30;14.00;66.00
75451;DHT22;64029;48.244;9.188;2023-05-02T15:00:56;14.00;66.80
75451;DHT22;64029;48.244;9.188;2023-05-02T15:03:23;14.00;65.30
75451;DHT22;64029;48.244;9.188;2023-05-02T15:05:50;14.00;65.90
75451;DHT22;64029;48.244;9.188;2023-05-02T15:08:17;13.90;66.10
75451;DHT22;64029;48.244;9.188;2023-05-02T15:10:45;13.90;66.10
75451;DHT22;64029;48.244;9.188;2023-05-02T15:13:12;13.90;66.10
75451;DHT22;64029;48.244;9.188;2023-05-02T15:15:39;13.90;65.90
75451;DHT22;64029;48.244;9.188;2023-05-02T15:18:06;13.90;65.80
75451;DHT22;64029;48.244;9.188;2023-05-02T15:20:33;13.90;66.80
75451;DHT22;64029;48.244;9.188;2023-05-02T15:22:59;13.90;66.70
75451;DHT22;64029;48.244;9.188;2023-05-02T15:25:28;14.00;66.70
75451;DHT22;64029;48.244;9.188;2023-05-02T15:27:57;13.90;65.30
75451;DHT22;64029;48.244;9.188;2023-05-02T15:30:24;13.90;64.70
75451;DHT22;64029;48.244;9.188;2023-05-02T15:32:51;13.90;65.10
75451;DHT22;64029;48.244;9.188;2023-05-02T15:35:18;13.80;64.70
75451;DHT22;64029;48.244;9.188;2023-05-02T15:37:44;13.90;65.90
75451;DHT22;64029;48.244;9.188;2023-05-02T15:40:12;13.90;65.60
75451;DHT22;64029;48.244;9.188;2023-05-02T15:42:39;13.90;66.10
75451;DHT22;64029;48.244;9.188;2023-05-02T15:45:10;13.80;64.80
75451;DHT22;64029;48.244;9.188;2023-05-02T15:47:38;13.80;65.40
75451;DHT22;64029;48.244;9.188;2023-05-02T15:50:05;13.80;66.10
75451;DHT22;64029;48.244;9.188;2023-05-02T15:52:32;13.80;66.80